createdAt,value
2019-05-07T00:02:29.351Z,8.47
2019-05-07T00:05:02.521Z,7.40
2019-05-07T00:07:32.878Z,8.23
2019-05-07T00:10:03.729Z,7.23
2019-05-07T00:12:35.683Z,8.13
2019-05-07T00:15:06.937Z,7.73
2019-05-07T00:17:37.840Z,7.90
2019-05-07T00:20:08.834Z,8.23
2019-05-07T00:22:41.840Z,6.77
2019-05-07T00:25:12.608Z,6.50
2019-05-07T00:27:43.545Z,7.40
2019-05-07T00:30:14.711Z,6.07
2019-05-07T00:32:45.656Z,5.67
2019-05-07T00:35:18.765Z,6.23
2019-05-07T00:37:55.458Z,6.67
2019-05-07T00:40:45.301Z,7.60
2019-05-07T00:43:18.833Z,6.23
2019-05-07T00:45:57.006Z,7.67
2019-05-07T00:48:28.002Z,9.33
2019-05-07T00:51:17.830Z,6.53
2019-05-07T00:53:48.671Z,6.83
2019-05-07T00:56:19.559Z,7.10
2019-05-07T00:58:52.548Z,7.17
2019-05-07T01:01:22.979Z,7.63
2019-05-07T01:03:53.898Z,7.83
2019-05-07T01:06:26.626Z,7.23
2019-05-07T01:08:57.323Z,7.40
2019-05-07T01:11:28.229Z,7.77
2019-05-07T01:13:59.146Z,6.17
2019-05-07T01:16:30.012Z,7.53
2019-05-07T01:19:02.047Z,7.73
2019-05-07T01:21:32.982Z,7.33
2019-05-07T01:24:04.031Z,8.83
2019-05-07T01:26:35.718Z,7.50
2019-05-07T01:29:06.646Z,7.00
2019-05-07T01:31:43.143Z,6.80
2019-05-07T01:34:48.471Z,7.13
2019-05-07T01:37:19.478Z,6.43
2019-05-07T01:39:52.829Z,7.10
2019-05-07T01:42:23.475Z,7.10
2019-05-07T01:44:54.423Z,8.10
2019-05-07T01:47:25.279Z,6.27
2019-05-07T01:49:56.320Z,7.23
2019-05-07T01:52:27.204Z,7.57
2019-05-07T01:54:58.080Z,7.93
2019-05-07T01:57:28.968Z,6.93
2019-05-07T02:00:02.386Z,6.70
2019-05-07T02:02:49.307Z,8.10
2019-05-07T02:05:39.182Z,6.27
2019-05-07T02:08:14.027Z,7.53
2019-05-07T02:10:49.310Z,7.07
2019-05-07T02:13:21.860Z,6.97
2019-05-07T02:15:58.500Z,8.07
2019-05-07T02:18:26.120Z,6.67
2019-05-07T02:20:57.018Z,6.50
2019-05-07T02:23:27.896Z,7.87
2019-05-07T02:25:58.847Z,6.47
2019-05-07T02:28:29.729Z,6.70
2019-05-07T02:31:03.796Z,7.37
2019-05-07T02:33:35.088Z,6.97
2019-05-07T02:36:05.816Z,7.60
2019-05-07T02:38:58.398Z,6.87
2019-05-07T02:41:33.012Z,7.13
2019-05-07T02:44:05.169Z,6.93
2019-05-07T02:46:56.261Z,8.00
2019-05-07T02:49:44.129Z,7.03
2019-05-07T02:52:22.930Z,6.93
2019-05-07T02:55:10.151Z,8.27
2019-05-07T02:57:43.456Z,7.23
2019-05-07T03:00:16.761Z,6.80
2019-05-07T03:02:46.554Z,5.93
2019-05-07T03:05:17.405Z,5.73
2019-05-07T03:07:48.684Z,6.37
2019-05-07T03:10:19.589Z,6.83
2019-05-07T03:12:53.373Z,6.83
2019-05-07T03:15:24.259Z,7.63
2019-05-07T03:17:55.206Z,6.47
2019-05-07T03:20:33.444Z,6.27
2019-05-07T03:23:05.032Z,7.63
2019-05-07T03:26:13.841Z,7.07
2019-05-07T03:28:53.585Z,7.13
2019-05-07T03:31:46.890Z,6.67
2019-05-07T03:34:36.729Z,6.50
2019-05-07T03:37:06.520Z,7.50
2019-05-07T03:39:37.584Z,7.33
2019-05-07T03:42:08.436Z,6.63
2019-05-07T03:44:58.204Z,7.63
2019-05-07T03:47:43.585Z,6.93
2019-05-07T03:50:14.695Z,7.50
2019-05-07T03:52:45.826Z,6.67
2019-05-07T03:55:16.732Z,6.27
2019-05-07T03:57:47.671Z,7.50
2019-05-07T04:00:19.264Z,6.70
2019-05-07T04:02:52.473Z,7.40
2019-05-07T04:05:23.369Z,6.70
2019-05-07T04:07:54.541Z,7.47
2019-05-07T04:10:25.467Z,7.17
2019-05-07T04:12:56.345Z,6.57
2019-05-07T04:15:28.289Z,7.97
2019-05-07T04:17:59.160Z,8.63
2019-05-07T04:20:33.051Z,8.00
2019-05-07T04:23:04.363Z,8.17
2019-05-07T04:25:55.544Z,7.60
2019-05-07T04:29:05.461Z,7.30
2019-05-07T04:31:43.036Z,7.23
2019-05-07T04:34:17.856Z,7.97
2019-05-07T04:36:53.214Z,8.27
2019-05-07T04:39:23.263Z,7.73
2019-05-07T04:41:54.296Z,7.10
2019-05-07T04:44:25.243Z,9.07
2019-05-07T04:46:56.492Z,8.40
2019-05-07T04:49:27.482Z,7.57
2019-05-07T04:52:15.235Z,7.03
2019-05-07T04:54:45.036Z,7.17
2019-05-07T04:57:28.081Z,7.10
2019-05-07T04:59:59.328Z,7.57
2019-05-07T05:02:47.537Z,8.60
2019-05-07T05:05:19.770Z,8.07
2019-05-07T05:07:53.148Z,7.90
2019-05-07T05:10:23.727Z,8.83
2019-05-07T05:12:54.631Z,7.77
2019-05-07T05:15:25.455Z,7.77
2019-05-07T05:17:56.402Z,7.93
2019-05-07T05:20:36.447Z,8.30
2019-05-07T05:23:22.624Z,9.57
2019-05-07T05:25:52.966Z,7.83
2019-05-07T05:28:23.847Z,7.57
2019-05-07T05:30:57.120Z,7.83
2019-05-07T05:33:32.374Z,9.07
2019-05-07T05:36:03.474Z,7.30
2019-05-07T05:38:34.694Z,7.83
2019-05-07T05:41:05.657Z,8.20
2019-05-07T05:43:48.909Z,8.80
2019-05-07T05:46:22.508Z,9.10
2019-05-07T05:48:53.271Z,8.50
2019-05-07T05:51:43.118Z,8.77
2019-05-07T05:54:35.968Z,7.77
2019-05-07T05:57:19.840Z,7.93
2019-05-07T06:00:24.519Z,7.70
2019-05-07T06:03:23.539Z,8.10
2019-05-07T06:06:03.713Z,8.53
2019-05-07T06:08:46.078Z,8.17
2019-05-07T06:11:38.881Z,10.43
2019-05-07T06:14:18.188Z,7.70
2019-05-07T06:16:56.805Z,7.73
2019-05-07T06:19:36.363Z,8.37
2019-05-07T06:22:25.803Z,8.57
2019-05-07T06:25:02.492Z,7.83
2019-05-07T06:27:33.453Z,6.90
2019-05-07T06:30:05.143Z,7.60
2019-05-07T06:32:37.158Z,7.45
2019-05-07T06:35:08.280Z,6.78
2019-05-07T06:37:39.425Z,6.72
2019-05-07T06:40:29.373Z,6.62
2019-05-07T06:43:15.423Z,7.50
2019-05-07T06:45:49.266Z,5.50
2019-05-07T06:48:37.145Z,6.85
2019-05-07T06:50:59.229Z,7.65
2019-05-07T06:53:33.290Z,6.97
2019-05-07T06:56:04.675Z,7.55
2019-05-07T06:58:53.359Z,7.00
2019-05-07T07:01:42.291Z,6.47
2019-05-07T07:04:17.400Z,8.13
2019-05-07T07:07:02.273Z,7.17
2019-05-07T07:09:42.430Z,6.75
2019-05-07T07:12:17.161Z,7.67
2019-05-07T07:14:48.270Z,7.67
2019-05-07T07:17:19.359Z,6.90
2019-05-07T07:19:52.127Z,7.35
2019-05-07T07:22:22.787Z,7.28
2019-05-07T07:24:53.689Z,8.33
2019-05-07T07:27:24.742Z,6.75
2019-05-07T07:30:26.756Z,7.92
2019-05-07T07:32:59.003Z,7.17
2019-05-07T07:35:32.030Z,7.65
2019-05-07T07:38:22.397Z,7.00
2019-05-07T07:43:49.495Z,7.37
2019-05-07T07:46:22.101Z,7.20
2019-05-07T07:49:07.203Z,6.42
2019-05-07T07:51:37.761Z,5.60
2019-05-07T07:54:02.528Z,7.00
2019-05-07T07:56:53.011Z,6.28
2019-05-07T07:59:36.299Z,6.67
2019-05-07T08:02:17.874Z,6.90
2019-05-07T08:04:48.712Z,7.03
2019-05-07T08:07:19.617Z,6.08
2019-05-07T08:09:52.046Z,6.35
2019-05-07T08:12:24.647Z,6.37
2019-05-07T08:15:11.135Z,5.70
2019-05-07T08:17:28.340Z,5.08
2019-05-07T08:19:59.188Z,5.47
2019-05-07T08:22:30.020Z,6.47
2019-05-07T08:25:01.918Z,5.83
2019-05-07T08:27:32.982Z,5.70
2019-05-07T08:30:05.127Z,6.47
2019-05-07T08:32:53.160Z,5.25
2019-05-07T08:35:28.150Z,5.05
2019-05-07T08:37:59.058Z,4.80
2019-05-07T08:40:29.961Z,5.03
2019-05-07T08:43:02.694Z,5.08
2019-05-07T08:45:52.444Z,5.12
2019-05-07T08:48:28.810Z,5.08
2019-05-07T08:50:59.730Z,5.45
2019-05-07T08:53:32.746Z,5.22
2019-05-07T08:56:03.426Z,3.50
2019-05-07T08:58:34.818Z,4.12
2019-05-07T09:01:05.727Z,4.53
2019-05-07T09:03:43.180Z,4.87
2019-05-07T09:06:15.165Z,5.20
2019-05-07T09:08:46.091Z,5.08
2019-05-07T09:11:17.517Z,5.10
2019-05-07T09:13:48.470Z,4.67
2019-05-07T09:16:19.365Z,4.28
2019-05-07T09:18:52.372Z,4.45
2019-05-07T09:21:23.191Z,4.67
2019-05-07T09:23:55.285Z,4.33
2019-05-07T09:26:32.834Z,4.10
2019-05-07T09:29:11.819Z,3.72
2019-05-07T09:32:03.033Z,4.60
2019-05-07T09:34:37.440Z,4.65
2019-05-07T09:37:12.291Z,4.75
2019-05-07T09:39:43.152Z,3.87
2019-05-07T09:42:14.257Z,4.37
2019-05-07T09:44:45.409Z,4.28
2019-05-07T09:47:16.279Z,4.10
2019-05-07T09:50:00.445Z,5.08
2019-05-07T09:52:22.852Z,4.28
2019-05-07T09:54:54.840Z,5.17
2019-05-07T09:57:31.153Z,3.27
2019-05-07T09:59:58.657Z,3.67
2019-05-07T10:02:32.032Z,4.58
2019-05-07T10:05:04.090Z,4.33
2019-05-07T10:07:36.580Z,4.30
2019-05-07T10:10:08.937Z,4.62
2019-05-07T10:12:49.975Z,3.92
2019-05-07T10:15:23.006Z,3.67
2019-05-07T10:18:01.847Z,4.03
2019-05-07T10:20:33.945Z,3.42
2019-05-07T10:23:05.693Z,3.62
2019-05-07T10:25:40.623Z,3.58
2019-05-07T10:28:12.607Z,3.72
2019-05-07T10:30:45.895Z,3.50
2019-05-07T10:33:18.056Z,3.25
2019-05-07T10:35:49.864Z,4.15
2019-05-07T10:38:21.849Z,3.75
2019-05-07T10:40:53.633Z,3.77
2019-05-07T10:43:25.558Z,3.60
2019-05-07T10:46:12.845Z,3.37
2019-05-07T10:48:52.475Z,3.35
2019-05-07T10:51:24.529Z,3.05
2019-05-07T10:53:57.339Z,3.90
2019-05-07T10:56:28.814Z,3.83
2019-05-07T10:58:59.827Z,2.85
2019-05-07T11:01:42.551Z,3.27
2019-05-07T11:04:14.580Z,3.42
2019-05-07T11:06:45.483Z,3.75
2019-05-07T11:09:16.299Z,3.27
2019-05-07T11:11:47.202Z,3.25
2019-05-07T11:14:18.665Z,3.62
2019-05-07T11:17:02.609Z,2.87
2019-05-07T11:19:33.516Z,3.20
2019-05-07T11:22:04.528Z,3.05
2019-05-07T11:24:35.432Z,3.17
2019-05-07T11:27:06.244Z,3.90
2019-05-07T11:29:37.152Z,3.17
2019-05-07T11:32:08.045Z,3.10
2019-05-07T11:34:42.228Z,3.22
2019-05-07T11:37:13.207Z,4.00
2019-05-07T11:39:44.109Z,3.30
2019-05-07T11:42:39.742Z,4.03
2019-05-07T11:45:25.641Z,3.45
2019-05-07T11:47:56.530Z,3.98
2019-05-07T11:50:38.735Z,3.67
2019-05-07T11:53:10.782Z,5.28
2019-05-07T11:55:42.160Z,4.17
2019-05-07T11:58:13.038Z,3.52
2019-05-07T12:00:52.370Z,3.25
2019-05-07T12:03:24.694Z,4.00
2019-05-07T12:05:55.610Z,3.62
2019-05-07T12:08:40.950Z,3.47
2019-05-07T12:11:02.125Z,4.00
2019-05-07T12:13:32.576Z,4.20
2019-05-07T12:16:03.453Z,4.05
2019-05-07T12:18:34.235Z,3.30
2019-05-07T12:21:17.404Z,3.85
2019-05-07T12:23:38.588Z,3.95
2019-05-07T12:26:09.446Z,4.15
2019-05-07T12:28:41.833Z,3.37
2019-05-07T12:31:52.000Z,4.37
2019-05-07T12:34:47.566Z,4.17
2019-05-07T12:37:19.002Z,3.87
2019-05-07T12:39:50.348Z,3.62
2019-05-07T12:42:22.440Z,3.52
2019-05-07T12:44:54.246Z,3.40
2019-05-07T12:47:25.737Z,3.15
2019-05-07T12:49:58.876Z,3.55
2019-05-07T12:52:35.632Z,3.02
2019-05-07T12:55:28.329Z,3.85
2019-05-07T12:57:59.217Z,3.10
2019-05-07T13:00:52.002Z,3.70
2019-05-07T13:03:35.652Z,3.80
2019-05-07T13:06:06.416Z,3.33
2019-05-07T13:08:37.339Z,4.00
2019-05-07T13:11:08.208Z,3.00
2019-05-07T13:13:39.126Z,3.02
2019-05-07T13:16:10.011Z,3.80
2019-05-07T13:18:42.307Z,3.72
2019-05-07T13:21:13.215Z,3.60
2019-05-07T13:23:44.125Z,4.62
2019-05-07T13:26:15.018Z,4.65
2019-05-07T13:28:46.170Z,3.70
2019-05-07T13:31:20.085Z,4.15
2019-05-07T13:33:52.398Z,3.83
2019-05-07T13:36:24.002Z,3.98
2019-05-07T13:39:10.164Z,3.95
2019-05-07T13:42:06.165Z,3.95
2019-05-07T13:44:49.084Z,3.27
2019-05-07T13:47:24.986Z,4.28
2019-05-07T13:49:56.077Z,3.92
2019-05-07T13:52:26.991Z,3.50
2019-05-07T13:54:58.001Z,3.90
2019-05-07T13:57:28.849Z,4.00
2019-05-07T14:00:02.349Z,4.85
2019-05-07T14:02:34.936Z,4.58
2019-05-07T14:05:06.271Z,4.08
2019-05-07T14:07:41.663Z,4.12
2019-05-07T14:10:13.080Z,4.60
2019-05-07T14:12:43.950Z,5.33
2019-05-07T14:15:15.725Z,4.40
2019-05-07T14:17:46.708Z,4.60
2019-05-07T14:20:17.715Z,4.75
2019-05-07T14:22:48.557Z,4.17
2019-05-07T14:25:19.417Z,4.03
2019-05-07T14:27:52.508Z,3.72
2019-05-07T14:30:24.445Z,4.75
2019-05-07T14:33:01.673Z,4.90
2019-05-07T14:35:53.901Z,4.45
2019-05-07T14:38:32.208Z,4.37
2019-05-07T14:41:02.984Z,4.08
2019-05-07T14:43:39.284Z,4.35
2019-05-07T14:46:12.009Z,4.37
2019-05-07T14:48:43.831Z,4.00
2019-05-07T14:51:15.404Z,4.92
2019-05-07T14:53:46.414Z,4.72
2019-05-07T14:56:17.406Z,3.87
2019-05-07T14:58:48.301Z,4.12
2019-05-07T15:01:22.259Z,3.83
2019-05-07T15:03:52.784Z,4.20
2019-05-07T15:06:23.667Z,4.00
2019-05-07T15:08:54.604Z,4.28
2019-05-07T15:11:25.976Z,4.50
2019-05-07T15:13:57.349Z,4.42
2019-05-07T15:16:29.415Z,3.62
2019-05-07T15:19:01.812Z,4.60
2019-05-07T15:21:32.826Z,3.92
2019-05-07T15:24:04.051Z,4.28
2019-05-07T15:26:35.575Z,4.17
2019-05-07T15:29:12.374Z,4.53
2019-05-07T15:32:03.379Z,3.98
2019-05-07T15:34:34.301Z,3.62
2019-05-07T15:37:05.183Z,4.45
2019-05-07T15:39:36.081Z,4.45
2019-05-07T15:42:06.877Z,4.72
2019-05-07T15:44:37.841Z,4.45
2019-05-07T15:47:13.495Z,5.17
2019-05-07T15:49:44.705Z,4.00
2019-05-07T15:52:22.184Z,3.40
2019-05-07T15:54:53.158Z,4.03
2019-05-07T15:57:26.988Z,3.72
2019-05-07T16:00:07.463Z,4.05
2019-05-07T16:02:45.052Z,4.12
2019-05-07T16:05:14.712Z,4.72
2019-05-07T16:07:47.007Z,4.10
2019-05-07T16:10:18.202Z,4.40
2019-05-07T16:12:49.954Z,6.33
2019-05-07T16:15:22.463Z,4.37
2019-05-07T16:18:02.621Z,4.10
2019-05-07T16:20:33.121Z,4.83
2019-05-07T16:23:13.919Z,4.57
2019-05-07T16:25:36.471Z,4.63
2019-05-07T16:28:07.497Z,5.40
2019-05-07T16:30:38.697Z,3.93
2019-05-07T16:33:09.650Z,4.80
2019-05-07T16:35:42.340Z,4.37
2019-05-07T16:38:15.593Z,7.40
2019-05-07T16:40:45.839Z,4.17
2019-05-07T16:43:17.061Z,5.20
2019-05-07T16:45:48.067Z,4.50
2019-05-07T16:48:18.963Z,4.27
2019-05-07T16:50:52.115Z,3.90
2019-05-07T16:53:29.598Z,4.63
2019-05-07T16:55:55.064Z,5.07
2019-05-07T16:58:39.280Z,4.87
2019-05-07T17:01:11.107Z,4.40
2019-05-07T17:03:48.976Z,4.57
2019-05-07T17:06:19.872Z,4.40
2019-05-07T17:08:56.918Z,4.30
2019-05-07T17:11:27.927Z,5.03
2019-05-07T17:13:58.961Z,5.00
2019-05-07T17:16:31.759Z,5.47
2019-05-07T17:19:03.172Z,4.40
2019-05-07T17:21:34.144Z,4.80
2019-05-07T17:24:05.055Z,4.73
2019-05-07T17:26:36.178Z,8.90
2019-05-07T17:29:07.457Z,4.07
2019-05-07T17:31:38.624Z,3.73
2019-05-07T17:34:11.656Z,5.47
2019-05-07T17:36:42.425Z,5.97
2019-05-07T17:39:14.484Z,4.80
2019-05-07T17:41:45.477Z,4.90
2019-05-07T17:44:16.487Z,6.87
2019-05-07T17:46:47.509Z,4.37
2019-05-07T17:49:18.425Z,4.80
2019-05-07T17:51:49.671Z,4.63
2019-05-07T17:54:22.498Z,4.67
2019-05-07T17:56:53.751Z,4.77
2019-05-07T17:59:24.638Z,4.73
2019-05-07T18:02:03.860Z,5.87
2019-05-07T18:04:50.514Z,4.77
2019-05-07T18:07:12.007Z,5.10
2019-05-07T18:09:43.078Z,4.77
2019-05-07T18:12:14.015Z,4.80
2019-05-07T18:14:45.098Z,5.00
2019-05-07T18:17:23.083Z,4.77
2019-05-07T18:19:54.261Z,4.93
2019-05-07T18:22:25.318Z,5.03
2019-05-07T18:24:56.360Z,5.33
2019-05-07T18:27:27.387Z,6.00
2019-05-07T18:30:02.400Z,5.10
2019-05-07T18:32:39.073Z,4.97
2019-05-07T18:35:12.499Z,5.33
2019-05-07T18:37:52.720Z,4.90
2019-05-07T18:40:25.091Z,4.80
2019-05-07T18:42:56.758Z,5.67
2019-05-07T18:45:27.950Z,5.17
2019-05-07T18:47:58.990Z,5.27
2019-05-07T18:50:32.733Z,5.50
2019-05-07T18:53:04.120Z,5.87
2019-05-07T18:55:36.715Z,6.23
2019-05-07T18:58:07.822Z,4.90
2019-05-07T19:00:42.883Z,5.23
2019-05-07T19:03:14.042Z,5.80
2019-05-07T19:05:44.976Z,5.40
2019-05-07T19:08:16.030Z,5.27
2019-05-07T19:10:47.395Z,5.20
2019-05-07T19:13:18.815Z,6.00
2019-05-07T19:15:52.714Z,5.10
2019-05-07T19:18:23.482Z,5.53
2019-05-07T19:20:54.451Z,5.67
2019-05-07T19:23:25.510Z,4.13
2019-05-07T19:25:56.929Z,4.77
2019-05-07T19:28:27.931Z,4.93
2019-05-07T19:30:58.849Z,5.57
2019-05-07T19:33:32.338Z,5.10
2019-05-07T19:36:02.664Z,5.07
2019-05-07T19:38:33.658Z,5.97
2019-05-07T19:41:04.598Z,4.80
2019-05-07T19:43:36.289Z,4.50
2019-05-07T19:46:07.342Z,4.77
2019-05-07T19:48:38.292Z,5.10
2019-05-07T19:51:09.298Z,4.90
2019-05-07T19:53:41.919Z,4.83
2019-05-07T19:56:16.683Z,5.40
2019-05-07T19:58:47.572Z,5.47
2019-05-07T20:01:22.867Z,5.30
2019-05-07T20:03:53.672Z,4.67
2019-05-07T20:06:25.535Z,5.07
2019-05-07T20:09:08.993Z,5.00
2019-05-07T20:11:34.093Z,5.43
2019-05-07T20:14:05.306Z,5.07
2019-05-07T20:16:36.185Z,5.57
2019-05-07T20:19:08.093Z,5.33
2019-05-07T20:21:39.033Z,6.03
2019-05-07T20:24:12.318Z,6.33
2019-05-07T20:26:43.393Z,6.23
2019-05-07T20:29:15.413Z,5.03
2019-05-07T20:31:46.766Z,6.20
2019-05-07T20:34:17.907Z,9.27
2019-05-07T20:36:48.785Z,6.73
2019-05-07T20:39:20.010Z,5.97
2019-05-07T20:41:52.640Z,6.77
2019-05-07T20:44:23.394Z,5.90
2019-05-07T20:46:54.664Z,5.30
2019-05-07T20:49:25.533Z,6.73
2019-05-07T20:51:56.735Z,5.97
2019-05-07T20:54:32.575Z,6.13
2019-05-07T20:57:13.195Z,5.50
2019-05-07T20:59:44.748Z,5.27
2019-05-07T21:02:15.554Z,5.60
2019-05-07T21:04:46.475Z,5.10
2019-05-07T21:07:17.339Z,5.97
2019-05-07T21:09:48.249Z,5.43
2019-05-07T21:12:19.105Z,5.83
2019-05-07T21:14:49.930Z,5.50
2019-05-07T21:17:22.687Z,5.23
2019-05-07T21:19:53.341Z,6.40
2019-05-07T21:22:24.522Z,5.53
2019-05-07T21:24:56.178Z,6.30
2019-05-07T21:27:27.057Z,5.93
2019-05-07T21:29:57.996Z,6.50
2019-05-07T21:32:29.245Z,5.97
2019-05-07T21:35:00.372Z,6.50
2019-05-07T21:37:32.338Z,5.63
2019-05-07T21:40:03.436Z,6.93
2019-05-07T21:42:34.410Z,6.47
2019-05-07T21:45:05.547Z,5.37
2019-05-07T21:47:36.552Z,6.40
2019-05-07T21:50:07.566Z,5.83
2019-05-07T21:52:40.222Z,6.20
2019-05-07T21:55:30.096Z,6.30
2019-05-07T21:58:06.761Z,6.57
2019-05-07T22:00:42.383Z,6.13
2019-05-07T22:03:16.545Z,7.00
2019-05-07T22:05:47.571Z,6.83
2019-05-07T22:08:21.717Z,6.23
2019-05-07T22:10:52.305Z,6.00
2019-05-07T22:13:24.313Z,6.00
2019-05-07T22:15:55.327Z,6.27
2019-05-07T22:18:27.195Z,7.57
2019-05-07T22:20:58.060Z,6.80
2019-05-07T22:23:28.968Z,6.90
2019-05-07T22:26:16.463Z,6.10
2019-05-07T22:28:34.522Z,6.67
2019-05-07T22:31:36.338Z,6.77
2019-05-07T22:34:17.331Z,6.63
2019-05-07T22:36:49.388Z,6.87
2019-05-07T22:39:37.366Z,5.83
2019-05-07T22:42:11.900Z,6.33
2019-05-07T22:44:42.622Z,6.17
2019-05-07T22:47:22.415Z,6.57
2019-05-07T22:49:53.725Z,7.63
2019-05-07T22:52:24.797Z,6.57
2019-05-07T22:54:55.591Z,6.23
2019-05-07T22:57:42.050Z,6.03
2019-05-07T23:00:19.712Z,7.07
2019-05-07T23:02:51.968Z,6.80
2019-05-07T23:05:23.152Z,7.03
2019-05-07T23:07:54.019Z,6.70
2019-05-07T23:10:25.068Z,7.33
2019-05-07T23:12:55.930Z,6.67
2019-05-07T23:15:26.809Z,5.90
2019-05-07T23:17:57.854Z,6.87
2019-05-07T23:20:29.377Z,7.57
2019-05-07T23:23:00.485Z,6.13
2019-05-07T23:25:32.229Z,6.23
2019-05-07T23:28:05.279Z,7.20
2019-05-07T23:30:35.596Z,6.10
2019-05-07T23:33:06.409Z,6.27
2019-05-07T23:35:37.285Z,6.67
2019-05-07T23:38:08.137Z,6.53
2019-05-07T23:41:02.135Z,7.53
2019-05-07T23:43:34.402Z,6.93
2019-05-07T23:46:05.321Z,6.07
2019-05-07T23:48:36.214Z,8.43
2019-05-07T23:51:07.200Z,7.00
2019-05-07T23:53:38.087Z,6.77
2019-05-07T23:56:09.168Z,7.20
2019-05-07T23:58:41.902Z,7.77
